KJFX

Walker County-Bevill Field Airport

Jasper, Alabama, USA
METAR KJFX 120135Z AUTO 00000KT 5SM BR M02/M02 A3031 RMK AO2 PWINO
Observed Flight Rules
Dec-12 @ 01:35 UTC (12 minutes ago)
Visibility Conditions
5 miles
  • Mist
Temperatures Readings
Current -2°C / 28°F
Dewpoint -2°C / 28°F
Humidity 100%
Altimeter 30.31" Hg
Pressure 1026 hPa
Elevation 148
METAR KJFX 120135Z AUTO 00000KT 5SM BR M02/M02 A3031 RMK AO2 PWINO
Observed Flight Rules
Dec-12 @ 01:35 UTC
(12 minutes ago)
Conditions
  • Mist
Temperature Dewpoint
-2°C / 28°F -2°C / 28°F
Humidity Altimeter Pressure
100% 30.31" Hg 1026 hPa